Time;durP1;ratioP1;P1;durP2;ratioP2;P2;SDS_P1;SDS_P2;PMS_P1;PMS_P2;Temp;Humidity;BMP_temperature;BMP_pressure;BME280_temperature;BME280_humidity;BME280_pressure;Samples;Min_cycle;Max_cycle;Signal;HPM_P1;HPM_P2
2021/12/19 00:00:24;;;;;;;38.42;19.67;;;;;;;;;;5095678;28;20090;-47
2021/12/19 00:11:13;;;;;;;32.47;16.13;;;;;;;;;;5078141;28;20039;-53
2021/12/19 00:13:40;;;;;;;33.13;16.13;;;;;;;;;;5094898;28;20107;-46
2021/12/19 00:16:07;;;;;;;30.50;15.80;;;;;;;;;;5096742;28;20032;-53
2021/12/19 00:18:33;;;;;;;29.20;16.75;;;;;;;;;;5096542;28;20028;-52
2021/12/19 00:20:59;;;;;;;30.33;17.40;;;;;;;;;;5094824;28;20071;-52
2021/12/19 00:23:26;;;;;;;41.47;22.10;;;;;;;;;;5092993;28;20484;-51
2021/12/19 00:25:52;;;;;;;37.83;18.92;;;;;;;;;;5093157;28;20094;-48
2021/12/19 00:28:18;;;;;;;36.20;20.48;;;;;;;;;;5091354;28;20115;-52
2021/12/19 00:30:44;;;;;;;30.48;17.85;;;;;;;;;;5099860;28;20123;-52
2021/12/19 00:33:10;;;;;;;24.95;14.30;;;;;;;;;;5095571;28;20027;-49
2021/12/19 00:35:36;;;;;;;20.95;13.70;;;;;;;;;;5097255;28;20091;-50
2021/12/19 00:38:02;;;;;;;27.42;15.80;;;;;;;;;;5093449;28;20722;-47
2021/12/19 00:40:27;;;;;;;30.70;18.33;;;;;;;;;;5101366;28;20593;-50
2021/12/19 00:43:03;;;;;;;35.00;21.00;;;;;;;;;;5092581;28;20123;-54
2021/12/19 00:45:32;;;;;;;29.17;18.30;;;;;;;;;;5097036;28;20031;-51
2021/12/19 00:48:01;;;;;;;28.58;17.25;;;;;;;;;;5097263;28;20035;-48
2021/12/19 00:50:28;;;;;;;27.85;16.30;;;;;;;;;;5093113;28;20032;-50
2021/12/19 00:52:53;;;;;;;22.65;16.15;;;;;;;;;;5099175;28;20124;-53
2021/12/19 00:55:24;;;;;;;31.48;18.58;;;;;;;;;;5091532;28;20485;-51
2021/12/19 00:57:50;;;;;;;27.45;17.85;;;;;;;;;;5095656;28;20039;-51
2021/12/19 01:00:19;;;;;;;35.05;18.10;;;;;;;;;;5094325;28;20491;-53
2021/12/19 01:02:46;;;;;;;24.63;15.70;;;;;;;;;;5102519;28;20048;-49
2021/12/19 01:05:12;;;;;;;28.15;16.88;;;;;;;;;;5097686;28;20126;-52
2021/12/19 01:07:38;;;;;;;30.13;17.65;;;;;;;;;;5096695;28;20490;-50
2021/12/19 01:10:07;;;;;;;26.27;17.45;;;;;;;;;;5100901;28;20028;-50
2021/12/19 01:12:33;;;;;;;25.80;16.45;;;;;;;;;;5103662;28;20032;-52
2021/12/19 01:14:59;;;;;;;29.42;17.42;;;;;;;;;;5097021;28;20461;-52
2021/12/19 01:17:24;;;;;;;36.13;17.02;;;;;;;;;;5104773;28;20028;-49
2021/12/19 01:19:50;;;;;;;32.55;16.92;;;;;;;;;;5109355;28;20031;-52
2021/12/19 01:22:16;;;;;;;28.27;15.75;;;;;;;;;;5094313;28;20063;-53
2021/12/19 01:24:43;;;;;;;27.33;15.55;;;;;;;;;;5100069;28;20512;-47
2021/12/19 01:27:09;;;;;;;23.88;14.18;;;;;;;;;;5098662;28;20038;-52
2021/12/19 01:29:34;;;;;;;21.92;14.30;;;;;;;;;;5097722;28;20048;-48
2021/12/19 01:32:01;;;;;;;20.02;13.32;;;;;;;;;;5096433;28;20028;-52
2021/12/19 01:34:27;;;;;;;22.20;13.95;;;;;;;;;;5106024;28;20035;-51
2021/12/19 01:36:53;;;;;;;23.10;13.43;;;;;;;;;;5097889;28;20374;-53
2021/12/19 01:39:18;;;;;;;20.88;13.93;;;;;;;;;;5077641;28;20036;-53
2021/12/19 01:41:53;;;;;;;17.73;13.38;;;;;;;;;;5096262;28;20066;-52
2021/12/19 01:44:19;;;;;;;19.95;13.27;;;;;;;;;;5097313;28;20056;-47
2021/12/19 01:46:46;;;;;;;23.45;14.32;;;;;;;;;;5097441;28;20044;-50
2021/12/19 01:49:17;;;;;;;21.75;14.35;;;;;;;;;;5079866;28;20059;-51
2021/12/19 01:51:43;;;;;;;25.63;14.00;;;;;;;;;;5103877;28;20040;-46
2021/12/19 01:54:09;;;;;;;25.98;13.40;;;;;;;;;;5095876;28;20040;-52
2021/12/19 01:56:36;;;;;;;19.85;13.18;;;;;;;;;;5104794;28;20063;-51
2021/12/19 01:59:02;;;;;;;17.08;12.05;;;;;;;;;;5097896;28;20050;-49
2021/12/19 02:01:28;;;;;;;16.13;11.48;;;;;;;;;;5093717;28;20016;-52
2021/12/19 02:03:53;;;;;;;19.20;12.43;;;;;;;;;;5098659;28;20038;-50
2021/12/19 02:06:19;;;;;;;22.38;13.15;;;;;;;;;;5100840;28;20060;-51
2021/12/19 02:08:48;;;;;;;21.48;12.65;;;;;;;;;;5096032;28;20035;-51
2021/12/19 02:11:14;;;;;;;19.80;13.40;;;;;;;;;;5099720;28;20031;-49
2021/12/19 02:13:40;;;;;;;22.80;13.30;;;;;;;;;;5100934;28;20034;-52
2021/12/19 02:16:06;;;;;;;20.88;13.20;;;;;;;;;;5098508;28;20040;-49
2021/12/19 02:18:32;;;;;;;23.38;12.82;;;;;;;;;;5103318;28;20032;-52
2021/12/19 02:20:58;;;;;;;18.10;12.25;;;;;;;;;;5097247;28;20024;-48
2021/12/19 02:23:27;;;;;;;23.20;13.35;;;;;;;;;;5097708;28;20032;-51
2021/12/19 02:25:54;;;;;;;19.42;12.98;;;;;;;;;;5101409;28;20031;-52
2021/12/19 02:28:20;;;;;;;18.52;12.07;;;;;;;;;;5105418;28;20059;-52
2021/12/19 02:30:47;;;;;;;16.52;11.52;;;;;;;;;;5093340;28;20043;-52
2021/12/19 02:33:17;;;;;;;18.65;11.57;;;;;;;;;;5097735;28;20472;-51
2021/12/19 02:35:49;;;;;;;21.42;11.80;;;;;;;;;;5101102;28;20107;-50
2021/12/19 02:49:04;;;;;;;18.90;10.75;;;;;;;;;;5092832;28;20423;-52
2021/12/19 02:51:34;;;;;;;13.52;9.82;;;;;;;;;;5099945;28;20036;-49
2021/12/19 02:54:00;;;;;;;19.63;10.68;;;;;;;;;;5098582;28;20477;-53
2021/12/19 02:56:26;;;;;;;18.10;9.93;;;;;;;;;;5094720;28;20070;-49
2021/12/19 02:58:52;;;;;;;17.38;10.73;;;;;;;;;;5092687;28;20059;-48
2021/12/19 03:01:20;;;;;;;12.35;9.82;;;;;;;;;;5096753;28;20024;-49
2021/12/19 03:03:46;;;;;;;20.23;10.63;;;;;;;;;;5099630;28;20126;-51
2021/12/19 03:06:13;;;;;;;19.15;11.38;;;;;;;;;;5096547;28;20028;-47
2021/12/19 03:08:44;;;;;;;15.85;10.13;;;;;;;;;;5093810;28;20471;-52
2021/12/19 03:18:57;;;;;;;12.85;9.75;;;;;;;;;;5093832;28;20024;-52
2021/12/19 03:21:24;;;;;;;14.30;9.43;;;;;;;;;;5098243;28;20071;-49
2021/12/19 03:23:50;;;;;;;13.23;9.35;;;;;;;;;;5099760;28;20034;-49
2021/12/19 03:26:16;;;;;;;13.35;10.07;;;;;;;;;;5095301;28;20130;-51
2021/12/19 03:28:42;;;;;;;10.98;9.45;;;;;;;;;;5095719;28;20143;-50
2021/12/19 03:31:08;;;;;;;15.60;9.13;;;;;;;;;;5092705;28;20480;-46
2021/12/19 03:33:38;;;;;;;10.88;8.57;;;;;;;;;;5097707;28;20035;-50
2021/12/19 03:36:07;;;;;;;10.95;9.25;;;;;;;;;;5103909;28;20502;-49
2021/12/19 03:38:39;;;;;;;10.63;8.75;;;;;;;;;;5099048;28;20111;-49
2021/12/19 03:43:39;;;;;;;;;;;;;;;;;;5094102;28;20039;-49
2021/12/19 03:46:05;;;;;;;14.75;8.80;;;;;;;;;;5098299;28;19920;-46
2021/12/19 03:48:31;;;;;;;13.65;9.35;;;;;;;;;;5097526;28;20039;-50
2021/12/19 03:50:58;;;;;;;13.60;8.65;;;;;;;;;;5095293;28;20039;-50
2021/12/19 03:53:23;;;;;;;11.32;9.00;;;;;;;;;;5098275;28;20032;-45
2021/12/19 03:55:50;;;;;;;10.75;9.10;;;;;;;;;;5092988;28;20380;-45
2021/12/19 03:58:18;;;;;;;12.45;8.82;;;;;;;;;;5094918;28;20040;-45
2021/12/19 04:00:45;;;;;;;13.88;8.80;;;;;;;;;;5098091;28;20179;-47
2021/12/19 04:03:23;;;;;;;11.93;8.50;;;;;;;;;;5103966;28;20039;-48
2021/12/19 04:05:51;;;;;;;10.55;7.97;;;;;;;;;;5100732;28;20468;-46
2021/12/19 04:08:18;;;;;;;9.05;7.35;;;;;;;;;;5092303;28;20020;-48
2021/12/19 04:10:46;;;;;;;9.98;7.32;;;;;;;;;;5096540;28;20031;-46
2021/12/19 04:13:12;;;;;;;9.02;7.40;;;;;;;;;;5096970;28;20031;-46
2021/12/19 04:15:38;;;;;;;11.10;7.07;;;;;;;;;;5091434;28;20025;-49
2021/12/19 04:18:05;;;;;;;11.68;7.45;;;;;;;;;;5092381;28;20400;-51
2021/12/19 04:20:31;;;;;;;9.90;7.38;;;;;;;;;;5094985;28;20596;-45
2021/12/19 04:22:57;;;;;;;10.70;7.32;;;;;;;;;;5094152;28;20032;-52
2021/12/19 04:25:23;;;;;;;9.68;6.80;;;;;;;;;;5094743;28;20401;-45
2021/12/19 04:27:49;;;;;;;12.32;8.43;;;;;;;;;;5101099;28;20193;-47
2021/12/19 04:30:18;;;;;;;12.90;7.93;;;;;;;;;;5095797;28;20039;-46
2021/12/19 04:32:47;;;;;;;12.25;8.10;;;;;;;;;;5096938;27;20028;-48
2021/12/19 04:35:13;;;;;;;12.75;8.65;;;;;;;;;;5094271;28;20550;-46
2021/12/19 04:40:31;;;;;;;11.52;8.05;;;;;;;;;;5095737;28;20372;-45
2021/12/19 04:53:45;;;;;;;13.30;7.90;;;;;;;;;;5100289;28;20093;-45
2021/12/19 04:59:13;;;;;;;8.90;7.25;;;;;;;;;;5096049;28;20048;-45
2021/12/19 05:04:41;;;;;;;10.70;7.35;;;;;;;;;;5101379;28;20064;-50
2021/12/19 05:15:25;;;;;;;8.65;6.88;;;;;;;;;;5099439;28;20048;-45
2021/12/19 05:17:52;;;;;;;10.68;7.72;;;;;;;;;;5095690;28;20063;-49
2021/12/19 05:20:22;;;;;;;11.52;7.97;;;;;;;;;;5104874;28;20484;-51
2021/12/19 05:22:50;;;;;;;10.95;8.10;;;;;;;;;;5097843;28;20047;-47
2021/12/19 05:25:20;;;;;;;9.52;7.63;;;;;;;;;;5098622;28;20047;-47
2021/12/19 05:27:50;;;;;;;9.00;7.75;;;;;;;;;;5100234;28;20489;-45
2021/12/19 05:30:16;;;;;;;9.88;7.38;;;;;;;;;;5099908;28;20493;-46
2021/12/19 05:32:43;;;;;;;12.43;7.60;;;;;;;;;;5093970;28;20044;-45
2021/12/19 05:35:11;;;;;;;10.52;6.90;;;;;;;;;;5098964;28;20030;-49
2021/12/19 05:45:51;;;;;;;9.02;7.20;;;;;;;;;;5098005;28;20082;-46
2021/12/19 05:48:16;;;;;;;12.02;7.30;;;;;;;;;;5095917;28;20404;-51
2021/12/19 05:50:42;;;;;;;10.07;7.68;;;;;;;;;;5100231;28;20071;-48
2021/12/19 05:53:11;;;;;;;13.90;7.60;;;;;;;;;;5099177;28;20111;-46
2021/12/19 05:55:37;;;;;;;9.05;7.25;;;;;;;;;;5097232;28;20043;-52
2021/12/19 05:58:03;;;;;;;11.55;7.40;;;;;;;;;;5099170;28;20032;-50
2021/12/19 06:00:29;;;;;;;9.20;7.47;;;;;;;;;;5095170;28;20108;-50
2021/12/19 06:02:56;;;;;;;11.13;8.05;;;;;;;;;;5104485;28;20068;-51
2021/12/19 06:05:21;;;;;;;10.98;8.13;;;;;;;;;;5101873;28;20435;-47
2021/12/19 06:07:48;;;;;;;8.73;7.38;;;;;;;;;;5095051;28;20050;-46
2021/12/19 06:10:13;;;;;;;9.65;7.43;;;;;;;;;;5079160;28;20032;-50
2021/12/19 06:12:39;;;;;;;8.80;7.53;;;;;;;;;;5107329;28;20046;-46
2021/12/19 06:15:10;;;;;;;8.88;6.85;;;;;;;;;;5099154;28;20066;-45
2021/12/19 06:17:40;;;;;;;10.43;7.53;;;;;;;;;;5097477;28;20040;-53
2021/12/19 06:20:07;;;;;;;8.63;6.93;;;;;;;;;;5102061;28;20496;-47
2021/12/19 06:22:32;;;;;;;10.10;7.30;;;;;;;;;;5094433;28;20040;-47
2021/12/19 06:24:58;;;;;;;10.48;6.85;;;;;;;;;;5095334;28;20051;-48
2021/12/19 06:27:23;;;;;;;11.15;7.32;;;;;;;;;;5099764;28;20381;-46
2021/12/19 06:29:49;;;;;;;8.82;7.25;;;;;;;;;;5098942;27;20048;-48
2021/12/19 06:32:16;;;;;;;13.43;8.43;;;;;;;;;;5098176;28;20380;-48
2021/12/19 06:34:42;;;;;;;11.50;8.30;;;;;;;;;;5095081;28;20067;-49
2021/12/19 06:37:10;;;;;;;11.73;8.15;;;;;;;;;;5094162;28;20541;-48
2021/12/19 06:39:37;;;;;;;11.98;7.07;;;;;;;;;;5097901;28;20040;-47
2021/12/19 06:42:05;;;;;;;15.77;9.55;;;;;;;;;;5095213;28;20039;-51
2021/12/19 06:44:31;;;;;;;11.75;8.43;;;;;;;;;;5100298;28;20030;-47
2021/12/19 06:46:57;;;;;;;10.68;7.93;;;;;;;;;;5100104;28;20020;-51
2021/12/19 06:49:22;;;;;;;9.88;7.38;;;;;;;;;;5098245;28;20034;-47
2021/12/19 06:51:48;;;;;;;12.20;9.05;;;;;;;;;;5092375;28;20115;-53
2021/12/19 06:54:14;;;;;;;16.27;10.65;;;;;;;;;;5100518;28;20024;-49
2021/12/19 06:56:39;;;;;;;17.02;9.75;;;;;;;;;;5096672;28;20024;-49
2021/12/19 06:59:05;;;;;;;15.68;9.77;;;;;;;;;;5098334;28;20024;-50
2021/12/19 07:01:31;;;;;;;16.63;10.15;;;;;;;;;;5097526;28;20023;-52
2021/12/19 07:03:56;;;;;;;15.90;9.75;;;;;;;;;;5093501;28;20036;-48
2021/12/19 07:06:22;;;;;;;16.65;10.75;;;;;;;;;;5095716;28;20035;-52
2021/12/19 07:08:48;;;;;;;16.15;10.20;;;;;;;;;;5093218;28;20043;-53
2021/12/19 07:11:14;;;;;;;16.48;9.10;;;;;;;;;;5097278;28;20461;-51
2021/12/19 07:13:39;;;;;;;16.15;9.65;;;;;;;;;;5095225;28;20380;-49
2021/12/19 07:16:07;;;;;;;22.40;13.02;;;;;;;;;;5093774;28;20035;-50
2021/12/19 07:18:33;;;;;;;24.00;14.30;;;;;;;;;;5094725;28;20024;-47
2021/12/19 07:20:58;;;;;;;24.90;16.38;;;;;;;;;;5103634;28;20034;-48
2021/12/19 07:23:31;;;;;;;33.85;18.40;;;;;;;;;;5056131;28;20416;-49
2021/12/19 07:25:57;;;;;;;40.03;21.83;;;;;;;;;;5043211;28;20055;-49
2021/12/19 07:28:23;;;;;;;46.15;26.30;;;;;;;;;;5044341;28;20569;-47
2021/12/19 07:30:49;;;;;;;34.67;21.95;;;;;;;;;;5045624;28;20108;-54
2021/12/19 07:33:14;;;;;;;32.90;18.08;;;;;;;;;;5048819;28;20138;-52
2021/12/19 07:35:44;;;;;;;31.85;19.17;;;;;;;;;;5043501;28;20111;-53
2021/12/19 07:38:12;;;;;;;27.58;15.52;;;;;;;;;;5034070;28;20156;-52
2021/12/19 07:40:39;;;;;;;16.30;10.45;;;;;;;;;;5042969;28;20524;-52
2021/12/19 07:43:08;;;;;;;17.52;12.10;;;;;;;;;;5037708;28;20451;-49
2021/12/19 07:45:34;;;;;;;15.60;9.43;;;;;;;;;;5046593;28;20112;-50
2021/12/19 07:47:59;;;;;;;12.77;8.40;;;;;;;;;;5046145;28;20458;-46
2021/12/19 07:50:26;;;;;;;10.70;8.50;;;;;;;;;;5046548;28;20033;-52
2021/12/19 07:52:53;;;;;;;21.73;14.45;;;;;;;;;;5035186;28;20068;-51
2021/12/19 07:55:19;;;;;;;19.42;12.57;;;;;;;;;;5044031;28;20049;-47
2021/12/19 07:57:44;;;;;;;22.80;13.73;;;;;;;;;;5039196;28;20560;-51
2021/12/19 08:00:12;;;;;;;20.75;13.70;;;;;;;;;;5046540;28;20061;-51
2021/12/19 08:02:39;;;;;;;18.83;13.25;;;;;;;;;;5038083;28;20033;-47
2021/12/19 08:05:05;;;;;;;11.88;9.35;;;;;;;;;;5045073;28;20116;-53
2021/12/19 08:07:30;;;;;;;12.88;9.43;;;;;;;;;;5037487;28;20117;-49
2021/12/19 08:10:12;;;;;;;14.88;10.68;;;;;;;;;;5039671;28;20065;-46
2021/12/19 08:12:39;;;;;;;14.10;9.50;;;;;;;;;;5044484;28;20029;-48
2021/12/19 08:15:06;;;;;;;11.93;7.88;;;;;;;;;;5045473;28;20280;-51
2021/12/19 08:17:32;;;;;;;11.13;8.02;;;;;;;;;;5038882;28;20041;-45
2021/12/19 08:19:59;;;;;;;10.20;7.35;;;;;;;;;;5031461;28;20032;-48
2021/12/19 08:22:26;;;;;;;12.52;7.57;;;;;;;;;;5042456;28;20041;-49
2021/12/19 08:24:52;;;;;;;9.75;6.60;;;;;;;;;;5046702;28;20029;-48
2021/12/19 08:27:17;;;;;;;10.80;7.47;;;;;;;;;;5038677;28;20036;-47
2021/12/19 08:29:44;;;;;;;11.07;8.73;;;;;;;;;;5047065;28;20025;-49
2021/12/19 08:32:10;;;;;;;15.55;9.90;;;;;;;;;;5046418;28;20039;-46
2021/12/19 08:34:36;;;;;;;18.60;13.95;;;;;;;;;;5032683;28;20164;-49
2021/12/19 08:37:02;;;;;;;15.55;11.18;;;;;;;;;;5024548;28;20117;-49
2021/12/19 08:39:31;;;;;;;16.55;11.48;;;;;;;;;;5023211;28;20030;-46
2021/12/19 08:41:57;;;;;;;11.55;8.65;;;;;;;;;;5029183;28;20032;-49
2021/12/19 08:44:23;;;;;;;10.70;7.80;;;;;;;;;;5018842;28;20045;-46
2021/12/19 08:46:49;;;;;;;9.60;6.97;;;;;;;;;;5024434;28;20104;-48
2021/12/19 08:49:15;;;;;;;9.13;7.90;;;;;;;;;;5029918;28;20383;-48
2021/12/19 08:51:41;;;;;;;11.40;7.40;;;;;;;;;;5028823;28;20040;-50
2021/12/19 08:54:08;;;;;;;9.48;7.18;;;;;;;;;;5033750;28;20458;-49
2021/12/19 08:56:34;;;;;;;9.00;7.10;;;;;;;;;;5032232;28;20381;-53
2021/12/19 08:59:00;;;;;;;11.13;7.00;;;;;;;;;;5028699;28;20034;-48
2021/12/19 09:01:27;;;;;;;14.30;9.32;;;;;;;;;;5026185;28;20029;-52
2021/12/19 09:03:53;;;;;;;15.35;10.52;;;;;;;;;;5026969;28;20037;-50
2021/12/19 09:06:19;;;;;;;16.92;12.90;;;;;;;;;;5032067;28;20032;-46
2021/12/19 09:08:45;;;;;;;17.30;12.77;;;;;;;;;;5026262;28;20029;-47
2021/12/19 09:11:11;;;;;;;25.65;14.50;;;;;;;;;;5026899;28;20026;-50
2021/12/19 09:13:37;;;;;;;22.58;14.82;;;;;;;;;;5020000;28;20034;-49
2021/12/19 09:16:02;;;;;;;22.38;15.30;;;;;;;;;;5027338;28;20025;-46
2021/12/19 09:18:28;;;;;;;23.90;14.77;;;;;;;;;;5026063;28;20090;-48
2021/12/19 09:20:55;;;;;;;17.88;14.45;;;;;;;;;;5025184;28;20034;-53
2021/12/19 09:23:21;;;;;;;24.63;14.27;;;;;;;;;;5024797;28;20518;-51
2021/12/19 09:25:47;;;;;;;21.35;13.95;;;;;;;;;;5025439;28;20041;-45
2021/12/19 09:28:14;;;;;;;22.40;15.32;;;;;;;;;;5021370;28;20085;-54
2021/12/19 09:30:43;;;;;;;26.52;15.38;;;;;;;;;;5025835;28;20029;-52
2021/12/19 09:33:09;;;;;;;23.25;16.73;;;;;;;;;;5028855;28;20498;-49
2021/12/19 09:35:35;;;;;;;25.13;16.65;;;;;;;;;;5024914;28;20030;-49
2021/12/19 09:38:04;;;;;;;22.75;16.05;;;;;;;;;;5027581;28;20079;-47
2021/12/19 09:40:36;;;;;;;25.10;16.30;;;;;;;;;;5030422;28;20021;-55
2021/12/19 09:43:09;;;;;;;24.08;15.43;;;;;;;;;;5029739;28;20038;-54
2021/12/19 09:45:35;;;;;;;23.35;16.58;;;;;;;;;;5018521;28;20032;-52
2021/12/19 09:48:01;;;;;;;21.23;16.58;;;;;;;;;;5028520;28;20375;-49
2021/12/19 09:50:29;;;;;;;32.45;22.38;;;;;;;;;;5025229;28;20034;-49
2021/12/19 09:52:55;;;;;;;42.45;23.70;;;;;;;;;;5033379;28;20151;-52
2021/12/19 09:55:22;;;;;;;32.65;23.15;;;;;;;;;;5027880;28;20101;-50
2021/12/19 09:57:53;;;;;;;32.90;21.73;;;;;;;;;;5028486;28;20037;-50
2021/12/19 10:00:20;;;;;;;33.55;22.00;;;;;;;;;;5015387;28;20030;-52
2021/12/19 10:02:46;;;;;;;27.27;20.13;;;;;;;;;;5027989;28;20482;-53
2021/12/19 10:05:16;;;;;;;28.80;20.73;;;;;;;;;;5022388;28;20040;-52
2021/12/19 10:07:53;;;;;;;33.30;22.35;;;;;;;;;;5018262;28;20028;-51
2021/12/19 10:10:33;;;;;;;31.02;21.20;;;;;;;;;;5015660;28;20049;-50
2021/12/19 10:13:00;;;;;;;32.17;23.58;;;;;;;;;;5017748;28;20058;-52
2021/12/19 10:15:38;;;;;;;31.00;20.80;;;;;;;;;;5026838;28;20061;-52
2021/12/19 10:18:11;;;;;;;30.13;21.92;;;;;;;;;;5020471;28;20057;-53
2021/12/19 10:20:46;;;;;;;31.77;21.35;;;;;;;;;;5024272;28;20066;-55
2021/12/19 10:23:18;;;;;;;33.60;21.75;;;;;;;;;;5015886;28;20041;-54
2021/12/19 10:25:54;;;;;;;30.60;20.58;;;;;;;;;;5016163;28;20112;-56
2021/12/19 10:28:20;;;;;;;29.40;21.13;;;;;;;;;;5033009;28;20041;-55
2021/12/19 10:30:48;;;;;;;26.73;20.45;;;;;;;;;;5027547;28;20029;-54
2021/12/19 10:33:19;;;;;;;28.00;20.73;;;;;;;;;;5014537;28;20425;-55
2021/12/19 10:35:50;;;;;;;28.85;19.90;;;;;;;;;;5024208;28;20035;-54
2021/12/19 10:38:23;;;;;;;30.98;20.55;;;;;;;;;;5024812;28;20505;-53
2021/12/19 10:40:51;;;;;;;29.98;19.70;;;;;;;;;;5026303;28;20116;-53
2021/12/19 10:43:18;;;;;;;34.35;21.20;;;;;;;;;;5020910;28;20513;-54
2021/12/19 10:45:48;;;;;;;28.52;21.38;;;;;;;;;;5025170;28;20103;-52
2021/12/19 10:48:18;;;;;;;26.77;20.92;;;;;;;;;;5024396;28;20479;-53
2021/12/19 10:50:54;;;;;;;30.98;19.58;;;;;;;;;;5028884;28;20037;-51
2021/12/19 10:53:28;;;;;;;30.45;19.17;;;;;;;;;;5026226;28;20025;-51
2021/12/19 10:55:55;;;;;;;33.83;23.65;;;;;;;;;;5022010;28;20399;-51
2021/12/19 10:58:43;;;;;;;35.88;24.90;;;;;;;;;;5021954;28;20060;-52
2021/12/19 11:01:17;;;;;;;35.63;23.90;;;;;;;;;;5018796;28;20065;-52
2021/12/19 11:03:49;;;;;;;38.35;25.40;;;;;;;;;;5016490;28;20033;-55
2021/12/19 11:06:28;;;;;;;36.50;25.75;;;;;;;;;;5030749;28;20029;-52
2021/12/19 11:08:56;;;;;;;44.22;27.08;;;;;;;;;;5022881;28;20032;-47
2021/12/19 11:11:51;;;;;;;35.22;24.98;;;;;;;;;;5024499;28;20608;-50
2021/12/19 11:14:31;;;;;;;33.00;21.63;;;;;;;;;;5023674;28;20035;-50
2021/12/19 11:17:02;;;;;;;39.00;23.02;;;;;;;;;;5018947;28;20585;-47
2021/12/19 11:19:29;;;;;;;30.80;22.20;;;;;;;;;;5025715;28;20164;-46
2021/12/19 11:21:55;;;;;;;32.63;22.27;;;;;;;;;;5025651;28;20060;-48
2021/12/19 11:24:22;;;;;;;29.08;20.60;;;;;;;;;;5019274;28;20150;-46
2021/12/19 11:26:50;;;;;;;31.30;18.45;;;;;;;;;;5024728;28;20032;-46
2021/12/19 11:29:17;;;;;;;29.77;18.60;;;;;;;;;;5018715;28;20407;-46
2021/12/19 11:31:46;;;;;;;30.85;21.70;;;;;;;;;;5017414;28;20037;-49
2021/12/19 11:34:50;;;;;;;29.95;20.83;;;;;;;;;;5018533;28;20073;-49
2021/12/19 11:37:21;;;;;;;32.40;21.70;;;;;;;;;;5022693;28;20500;-47
2021/12/19 11:39:54;;;;;;;35.10;22.25;;;;;;;;;;5023993;28;20087;-49
2021/12/19 11:42:30;;;;;;;33.45;22.17;;;;;;;;;;5028952;28;20358;-46
2021/12/19 11:47:49;;;;;;;36.63;24.30;;;;;;;;;;5024853;28;20030;-47
2021/12/19 11:50:27;;;;;;;38.00;24.83;;;;;;;;;;5027776;28;20097;-45
2021/12/19 11:52:56;;;;;;;36.35;25.63;;;;;;;;;;5019458;28;20368;-48
2021/12/19 11:55:28;;;;;;;48.50;29.38;;;;;;;;;;5022700;28;20444;-48
2021/12/19 11:58:09;;;;;;;37.13;26.30;;;;;;;;;;5026658;28;20030;-46
2021/12/19 12:00:43;;;;;;;39.72;28.63;;;;;;;;;;5022953;28;20104;-45
2021/12/19 12:03:11;;;;;;;39.83;27.15;;;;;;;;;;5023966;28;20061;-46
2021/12/19 12:05:49;;;;;;;40.65;27.95;;;;;;;;;;5028358;28;20116;-48
2021/12/19 12:08:16;;;;;;;38.05;25.33;;;;;;;;;;5029469;28;20043;-52
2021/12/19 12:10:51;;;;;;;36.05;24.00;;;;;;;;;;5023511;28;20158;-49
2021/12/19 12:13:24;;;;;;;31.30;21.15;;;;;;;;;;5022125;28;20062;-49
2021/12/19 12:15:53;;;;;;;31.70;21.70;;;;;;;;;;5029233;28;20036;-47
2021/12/19 12:18:36;;;;;;;35.05;22.35;;;;;;;;;;5029432;28;20028;-46
2021/12/19 12:21:20;;;;;;;28.30;20.10;;;;;;;;;;5033932;28;20032;-48
2021/12/19 12:23:55;;;;;;;31.00;20.70;;;;;;;;;;5029074;28;20092;-49
2021/12/19 12:27:04;;;;;;;38.28;20.38;;;;;;;;;;5025758;28;20438;-49
2021/12/19 12:29:32;;;;;;;28.40;19.35;;;;;;;;;;5030156;28;20045;-53
2021/12/19 12:31:58;;;;;;;30.95;20.75;;;;;;;;;;5020543;28;20038;-52
2021/12/19 12:34:23;;;;;;;32.05;22.15;;;;;;;;;;5028479;28;20125;-51
2021/12/19 12:36:51;;;;;;;32.20;21.52;;;;;;;;;;5023014;28;20049;-51
2021/12/19 12:39:24;;;;;;;32.38;22.85;;;;;;;;;;5025117;28;20038;-53
2021/12/19 12:42:00;;;;;;;34.33;21.77;;;;;;;;;;5023831;28;20491;-50
2021/12/19 12:44:27;;;;;;;28.90;19.88;;;;;;;;;;5020888;28;20112;-46
2021/12/19 12:46:53;;;;;;;28.23;21.02;;;;;;;;;;5028256;28;20477;-47
2021/12/19 12:49:25;;;;;;;33.13;20.25;;;;;;;;;;5024829;28;20034;-49
2021/12/19 12:51:56;;;;;;;27.10;19.25;;;;;;;;;;5028685;28;20037;-48
2021/12/19 12:54:32;;;;;;;27.20;20.40;;;;;;;;;;5022778;28;20034;-49
2021/12/19 12:56:59;;;;;;;25.15;17.85;;;;;;;;;;5027578;28;20030;-46
2021/12/19 12:59:30;;;;;;;31.65;20.15;;;;;;;;;;5027868;28;20124;-48
2021/12/19 13:02:55;;;;;;;25.90;18.92;;;;;;;;;;5024536;28;20112;-47
2021/12/19 13:04:53;;;;;;;25.52;17.65;;;;;;;;;;5014348;28;20151;-46
2021/12/19 13:07:23;;;;;;;24.30;18.27;;;;;;;;;;5030531;28;20064;-47
2021/12/19 13:09:50;;;;;;;23.33;16.83;;;;;;;;;;5029933;28;20479;-48
2021/12/19 13:12:20;;;;;;;21.33;16.85;;;;;;;;;;5031358;28;20036;-47
2021/12/19 13:14:57;;;;;;;19.60;15.52;;;;;;;;;;5022252;28;20034;-47
2021/12/19 13:17:28;;;;;;;20.55;15.25;;;;;;;;;;5030421;28;20033;-47
2021/12/19 13:20:02;;;;;;;19.80;15.25;;;;;;;;;;5030485;28;20419;-46
2021/12/19 13:22:36;;;;;;;18.08;13.80;;;;;;;;;;5023626;28;20057;-46
2021/12/19 13:25:15;;;;;;;21.95;14.35;;;;;;;;;;5020074;28;20112;-50
2021/12/19 13:27:46;;;;;;;20.02;14.63;;;;;;;;;;5020385;28;20087;-50
2021/12/19 13:30:14;;;;;;;18.50;14.35;;;;;;;;;;5033387;28;20489;-49
2021/12/19 13:32:51;;;;;;;19.05;14.73;;;;;;;;;;5029423;28;20025;-51
2021/12/19 13:35:27;;;;;;;18.17;14.00;;;;;;;;;;5026270;28;20100;-46
2021/12/19 13:37:55;;;;;;;17.58;13.63;;;;;;;;;;5020631;28;20390;-46
2021/12/19 13:40:45;;;;;;;18.83;12.50;;;;;;;;;;5029949;28;20048;-47
2021/12/19 13:43:17;;;;;;;17.10;12.90;;;;;;;;;;5019366;28;20025;-48
2021/12/19 13:45:58;;;;;;;19.85;12.05;;;;;;;;;;5028595;28;20473;-49
2021/12/19 13:48:37;;;;;;;14.82;11.60;;;;;;;;;;5023960;28;20127;-49
2021/12/19 13:51:18;;;;;;;12.90;10.80;;;;;;;;;;5018998;28;20045;-51
2021/12/19 13:53:49;;;;;;;14.90;11.65;;;;;;;;;;5022962;28;20033;-50
2021/12/19 13:56:24;;;;;;;14.80;9.93;;;;;;;;;;5026475;28;20028;-48
2021/12/19 13:59:03;;;;;;;17.92;10.52;;;;;;;;;;5025179;28;20038;-50
2021/12/19 14:01:38;;;;;;;16.55;11.25;;;;;;;;;;5023240;28;20022;-49
2021/12/19 14:04:17;;;;;;;15.93;11.40;;;;;;;;;;5018365;28;20029;-48
2021/12/19 14:06:48;;;;;;;11.85;9.10;;;;;;;;;;5029709;28;20029;-46
2021/12/19 14:09:16;;;;;;;11.60;8.60;;;;;;;;;;5026864;28;20029;-47
2021/12/19 14:11:45;;;;;;;12.45;8.18;;;;;;;;;;5028849;28;20449;-46
2021/12/19 14:14:35;;;;;;;14.10;9.02;;;;;;;;;;5021775;28;20063;-48
2021/12/19 14:17:09;;;;;;;12.77;8.98;;;;;;;;;;5023467;28;20064;-46
2021/12/19 14:19:47;;;;;;;11.98;9.10;;;;;;;;;;5030885;28;20172;-54
2021/12/19 14:22:15;;;;;;;12.90;8.48;;;;;;;;;;5027174;28;20050;-51
2021/12/19 14:24:56;;;;;;;11.93;8.10;;;;;;;;;;5021184;28;20088;-45
2021/12/19 14:27:26;;;;;;;15.02;9.15;;;;;;;;;;5027867;28;20041;-46
2021/12/19 14:29:55;;;;;;;9.13;8.02;;;;;;;;;;5026829;28;20079;-46
2021/12/19 14:32:46;;;;;;;10.98;7.97;;;;;;;;;;5014312;28;20055;-52
2021/12/19 14:35:24;;;;;;;9.30;7.00;;;;;;;;;;5009925;28;20598;-47
2021/12/19 14:37:52;;;;;;;11.90;8.57;;;;;;;;;;5021085;28;20041;-51
2021/12/19 14:40:21;;;;;;;11.32;7.55;;;;;;;;;;5014325;28;20030;-47
2021/12/19 14:42:49;;;;;;;12.65;7.72;;;;;;;;;;5022430;28;20061;-50
2021/12/19 14:45:26;;;;;;;11.13;7.75;;;;;;;;;;5028965;28;20051;-48
2021/12/19 14:48:05;;;;;;;12.13;7.65;;;;;;;;;;5024909;28;20481;-47
2021/12/19 14:50:33;;;;;;;10.98;6.97;;;;;;;;;;5020090;28;20033;-46
2021/12/19 14:53:01;;;;;;;9.52;7.35;;;;;;;;;;5022193;28;20026;-47
2021/12/19 14:55:31;;;;;;;14.95;8.25;;;;;;;;;;5019645;28;20049;-49
2021/12/19 14:57:57;;;;;;;9.88;8.13;;;;;;;;;;5022219;28;20156;-49
2021/12/19 15:00:23;;;;;;;10.77;7.60;;;;;;;;;;5027804;28;20492;-51
2021/12/19 15:02:49;;;;;;;9.93;7.50;;;;;;;;;;5031994;28;20363;-51
2021/12/19 15:05:15;;;;;;;10.57;7.72;;;;;;;;;;5018137;28;20033;-54
2021/12/19 15:07:44;;;;;;;19.65;12.63;;;;;;;;;;5020331;28;20030;-51
2021/12/19 15:10:12;;;;;;;37.97;24.23;;;;;;;;;;5028896;28;20106;-48
2021/12/19 15:12:38;;;;;;;21.05;14.85;;;;;;;;;;5029287;28;20040;-49
2021/12/19 15:15:05;;;;;;;27.17;16.45;;;;;;;;;;5022332;28;20037;-54
2021/12/19 15:17:31;;;;;;;35.28;20.13;;;;;;;;;;5026054;28;20056;-51
2021/12/19 15:19:56;;;;;;;53.85;32.00;;;;;;;;;;5031243;28;20030;-51
2021/12/19 15:22:22;;;;;;;27.15;18.90;;;;;;;;;;5025768;28;20073;-47
2021/12/19 15:24:48;;;;;;;27.55;20.05;;;;;;;;;;5022006;28;20501;-50
2021/12/19 15:27:13;;;;;;;27.85;19.10;;;;;;;;;;5021540;28;20520;-46
2021/12/19 15:29:39;;;;;;;34.88;23.77;;;;;;;;;;5015444;28;20081;-48
2021/12/19 15:32:07;;;;;;;41.13;26.20;;;;;;;;;;5026952;28;20029;-51
2021/12/19 15:34:32;;;;;;;34.63;22.77;;;;;;;;;;5027637;28;20091;-47
2021/12/19 15:36:58;;;;;;;42.15;24.63;;;;;;;;;;5028701;28;20037;-45
2021/12/19 15:39:24;;;;;;;45.03;28.98;;;;;;;;;;5019114;28;20041;-51
2021/12/19 15:41:51;;;;;;;53.70;34.42;;;;;;;;;;5028946;28;20034;-56